Terminal Aerodrome Forecast
Issued by NWS

Current Version | Previous Version | Text Only | Print | Product List | Glossary On
Versions: 1 2 3 4 5 6 7 8 9 10 11 12 13 14 15
000 FTUS41 KBTV 232300 TAFMPV TAF KMPV 232324Z 2400/2424 VRB03KT 6SM BR VCSH SCT030 BKN035 OVC080 TEMPO 2400/2404 1SM SHRA BR BKN022 FM240500 35008KT P6SM SCT025 BKN050 FM241300 33010KT P6SM SCT040=

USA.gov is the U.S. government's official web portal to all federal, state and local government web resources and services.